createdAt,value
2018-05-25T00:03:11.212Z,19.70
2018-05-25T00:05:54.082Z,19.60
2018-05-25T00:08:22.636Z,19.60
2018-05-25T00:10:50.875Z,19.60
2018-05-25T00:13:19.241Z,19.60
2018-05-25T00:15:47.476Z,19.60
2018-05-25T00:18:15.875Z,19.50
2018-05-25T00:20:44.190Z,19.50
2018-05-25T00:23:12.490Z,19.50
2018-05-25T00:25:41.657Z,19.50
2018-05-25T00:28:10.046Z,19.40
2018-05-25T00:30:39.244Z,19.40
2018-05-25T00:33:08.382Z,19.40
2018-05-25T00:35:36.669Z,19.40
2018-05-25T00:38:04.951Z,19.40
2018-05-25T00:40:33.910Z,19.30
2018-05-25T00:43:02.915Z,19.30
2018-05-25T00:45:31.443Z,19.30
2018-05-25T00:50:45.365Z,19.20
2018-05-25T00:53:13.743Z,19.10
2018-05-25T00:58:24.495Z,19.10
2018-05-25T01:00:53.505Z,19.10
2018-05-25T01:03:21.854Z,19.10
2018-05-25T01:05:51.026Z,19.00
2018-05-25T01:08:20.961Z,18.90
2018-05-25T01:10:49.974Z,18.90
2018-05-25T01:13:18.423Z,18.90
2018-05-25T01:15:46.866Z,18.90
2018-05-25T01:18:15.083Z,18.90
2018-05-25T01:20:43.394Z,18.90
2018-05-25T01:23:11.937Z,18.80
2018-05-25T01:25:54.950Z,18.80
2018-05-25T01:28:23.899Z,18.70
2018-05-25T01:30:52.149Z,18.70
2018-05-25T01:33:21.191Z,18.60
2018-05-25T01:35:49.485Z,18.60
2018-05-25T01:38:19.304Z,18.50
2018-05-25T01:40:47.587Z,18.50
2018-05-25T01:43:15.911Z,18.50
2018-05-25T01:45:44.263Z,18.40
2018-05-25T01:48:13.432Z,18.40
2018-05-25T01:50:42.406Z,18.40
2018-05-25T01:53:11.566Z,18.40
2018-05-25T01:55:39.901Z,18.40
2018-05-25T01:58:08.165Z,18.40
2018-05-25T02:00:36.816Z,18.40
2018-05-25T02:03:05.094Z,18.30
2018-05-25T02:05:53.893Z,18.40
2018-05-25T02:08:22.141Z,18.40
2018-05-25T02:10:50.449Z,18.40
2018-05-25T02:13:19.593Z,17.70
2018-05-25T02:15:47.915Z,17.70
2018-05-25T02:18:16.358Z,17.80
2018-05-25T02:20:44.624Z,18.10
2018-05-25T02:23:12.917Z,18.10
2018-05-25T02:25:41.314Z,18.10
2018-05-25T02:28:11.368Z,18.10
2018-05-25T02:30:40.466Z,18.10
2018-05-25T02:33:09.881Z,18.10
2018-05-25T02:35:38.172Z,18.00
2018-05-25T02:38:06.577Z,18.00
2018-05-25T02:40:34.876Z,18.00
2018-05-25T02:43:04.024Z,18.00
2018-05-25T02:45:32.199Z,18.00
2018-05-25T02:51:02.053Z,17.90
2018-05-25T02:53:30.327Z,17.90
2018-05-25T02:55:58.551Z,17.90
2018-05-25T02:58:26.967Z,17.90
2018-05-25T03:00:55.457Z,17.90
2018-05-25T03:03:23.935Z,17.90
2018-05-25T03:05:53.034Z,17.80
2018-05-25T03:08:21.385Z,17.80
2018-05-25T03:10:49.784Z,17.80
2018-05-25T03:13:18.262Z,17.80
2018-05-25T03:15:46.627Z,17.70
2018-05-25T03:18:14.844Z,17.20
2018-05-25T03:20:55.909Z,16.90
2018-05-25T03:23:24.969Z,17.20
2018-05-25T03:25:53.234Z,17.20
2018-05-25T03:28:21.450Z,17.40
2018-05-25T03:30:56.485Z,17.50
2018-05-25T03:33:25.631Z,17.50
2018-05-25T03:35:54.795Z,17.50
2018-05-25T03:38:23.880Z,17.50
2018-05-25T03:40:52.261Z,17.50
2018-05-25T03:43:20.942Z,17.50
2018-05-25T03:45:49.109Z,17.50
2018-05-25T03:48:18.534Z,17.40
2018-05-25T03:50:47.740Z,17.40
2018-05-25T03:53:16.916Z,17.10
2018-05-25T03:55:45.101Z,17.10
2018-05-25T04:01:32.242Z,17.30
2018-05-25T04:04:01.387Z,17.20
2018-05-25T04:06:29.681Z,17.20
2018-05-25T04:08:57.986Z,16.90
2018-05-25T04:11:27.510Z,16.40
2018-05-25T04:13:56.112Z,16.40
2018-05-25T04:16:24.510Z,16.40
2018-05-25T04:18:54.609Z,16.60
2018-05-25T04:21:23.118Z,16.70
2018-05-25T04:23:51.406Z,17.00
2018-05-25T04:29:20.181Z,16.80
2018-05-25T04:31:54.425Z,16.90
2018-05-25T04:34:22.745Z,16.80
2018-05-25T04:36:51.009Z,16.70
2018-05-25T04:39:19.954Z,16.50
2018-05-25T04:41:54.919Z,16.50
2018-05-25T04:44:23.870Z,16.30
2018-05-25T04:46:52.281Z,16.30
2018-05-25T04:49:20.517Z,16.60
2018-05-25T04:51:48.717Z,16.60
2018-05-25T04:54:17.766Z,16.80
2018-05-25T04:56:45.999Z,16.80
2018-05-25T04:59:14.604Z,16.90
2018-05-25T05:01:44.703Z,16.90
2018-05-25T05:04:12.916Z,16.90
2018-05-25T05:06:41.223Z,16.90
2018-05-25T05:09:09.411Z,17.10
2018-05-25T05:11:55.239Z,17.30
2018-05-25T05:14:24.222Z,17.40
2018-05-25T05:16:53.292Z,17.50
2018-05-25T05:19:22.377Z,17.50
2018-05-25T05:21:50.562Z,17.60
2018-05-25T05:24:19.275Z,17.70
2018-05-25T05:26:47.485Z,17.80
2018-05-25T05:29:15.687Z,17.70
2018-05-25T05:31:45.400Z,17.90
2018-05-25T05:34:15.081Z,18.00
2018-05-25T05:36:56.458Z,18.00
2018-05-25T05:39:54.486Z,18.10
2018-05-25T05:42:23.490Z,18.20
2018-05-25T05:44:52.450Z,18.30
2018-05-25T05:47:22.257Z,18.40
2018-05-25T05:49:50.430Z,18.40
2018-05-25T05:52:18.676Z,18.50
2018-05-25T05:54:46.871Z,18.60
2018-05-25T05:57:15.098Z,18.60
2018-05-25T05:59:43.282Z,18.60
2018-05-25T06:05:12.155Z,18.90
2018-05-25T06:07:54.554Z,18.90
2018-05-25T06:10:22.890Z,18.90
2018-05-25T06:12:54.623Z,18.90
2018-05-25T06:15:22.838Z,19.10
2018-05-25T06:17:56.974Z,19.20
2018-05-25T06:20:53.595Z,19.20
2018-05-25T06:23:21.817Z,19.20
2018-05-25T06:25:57.329Z,19.50
2018-05-25T06:28:53.090Z,19.50
2018-05-25T06:31:38.667Z,19.50
2018-05-25T06:34:06.884Z,19.60
2018-05-25T06:36:55.353Z,19.70
2018-05-25T06:39:53.598Z,19.80
2018-05-25T06:45:22.688Z,20.00
2018-05-25T06:47:50.901Z,20.00
2018-05-25T06:53:19.359Z,20.20
2018-05-25T06:55:54.653Z,20.40
2018-05-25T06:58:53.419Z,20.40
2018-05-25T07:07:20.438Z,20.60
2018-05-25T07:09:54.793Z,20.80
2018-05-25T07:12:53.551Z,20.90
2018-05-25T07:15:21.740Z,21.00
2018-05-25T07:17:50.714Z,21.10
2018-05-25T07:23:19.159Z,21.30
2018-05-25T07:25:54.434Z,21.30
2018-05-25T07:28:53.179Z,21.40
2018-05-25T07:31:21.426Z,21.50
2018-05-25T07:33:56.034Z,21.50
2018-05-25T07:36:54.581Z,21.60
2018-05-25T07:39:22.906Z,21.70
2018-05-25T07:41:55.486Z,21.90
2018-05-25T07:44:25.298Z,22.00
2018-05-25T07:46:55.106Z,21.90
2018-05-25T07:49:23.286Z,22.10
2018-05-25T07:51:53.102Z,22.30
2018-05-25T07:54:21.305Z,22.30
2018-05-25T07:56:49.544Z,22.50
2018-05-25T07:59:18.519Z,22.60
2018-05-25T08:01:46.905Z,22.60
2018-05-25T08:04:15.093Z,22.60
2018-05-25T08:06:44.051Z,22.80
2018-05-25T08:15:13.899Z,23.20
2018-05-25T08:17:43.487Z,23.20
2018-05-25T08:20:11.739Z,23.20
2018-05-25T08:22:40.687Z,23.40
2018-05-25T08:25:08.865Z,23.40
2018-05-25T08:27:37.211Z,23.50
2018-05-25T08:30:05.428Z,23.60
2018-05-25T08:32:33.693Z,23.80
2018-05-25T08:35:02.827Z,23.90
2018-05-25T08:38:02.549Z,24.00
2018-05-25T08:40:54.204Z,24.00
2018-05-25T08:43:22.391Z,24.20
2018-05-25T08:45:50.643Z,24.30
2018-05-25T08:48:18.839Z,24.40
2018-05-25T08:50:47.063Z,24.50
2018-05-25T08:53:15.277Z,24.60
2018-05-25T08:55:43.939Z,24.70
2018-05-25T08:58:12.167Z,24.70
2018-05-25T09:00:40.401Z,24.80
2018-05-25T09:03:08.639Z,24.90
2018-05-25T09:05:54.598Z,25.00
2018-05-25T09:08:22.973Z,25.00
2018-05-25T09:10:51.311Z,25.00
2018-05-25T09:13:20.228Z,25.20
2018-05-25T09:15:48.451Z,25.20
2018-05-25T09:18:17.435Z,25.20
2018-05-25T09:20:46.452Z,25.30
2018-05-25T09:23:14.787Z,25.30
2018-05-25T09:25:43.071Z,25.20
2018-05-25T09:28:12.027Z,25.30
2018-05-25T09:30:54.692Z,25.30
2018-05-25T09:33:55.469Z,25.30
2018-05-25T09:36:23.729Z,25.20
2018-05-25T09:38:52.671Z,25.70
2018-05-25T09:41:20.942Z,25.70
2018-05-25T09:43:49.174Z,25.70
2018-05-25T09:46:17.461Z,25.70
2018-05-25T09:48:45.684Z,25.60
2018-05-25T09:54:15.627Z,25.80
2018-05-25T09:57:01.629Z,25.90
2018-05-25T09:59:29.890Z,25.70
2018-05-25T10:01:59.318Z,25.80
2018-05-25T10:04:28.259Z,25.80
2018-05-25T10:06:56.640Z,25.90
2018-05-25T10:09:24.887Z,25.90
2018-05-25T10:11:54.895Z,25.90
2018-05-25T10:14:23.106Z,26.00
2018-05-25T10:16:51.323Z,26.10
2018-05-25T10:19:20.774Z,26.10
2018-05-25T10:21:49.289Z,26.20
2018-05-25T10:24:18.798Z,26.30
2018-05-25T10:26:55.175Z,26.40
2018-05-25T10:29:53.989Z,26.50
2018-05-25T10:35:22.478Z,26.60
2018-05-25T10:37:50.648Z,26.70
2018-05-25T10:46:01.401Z,26.40
2018-05-25T10:51:30.261Z,26.70
2018-05-25T10:53:58.490Z,26.60
2018-05-25T10:56:53.529Z,26.50
2018-05-25T11:02:53.378Z,26.70
2018-05-25T11:05:21.619Z,26.70
2018-05-25T11:07:51.389Z,26.30
2018-05-25T11:19:21.873Z,26.20
2018-05-25T11:21:56.085Z,26.50
2018-05-25T11:24:54.424Z,26.40
2018-05-25T11:27:24.410Z,26.60
2018-05-25T11:29:52.657Z,26.60
2018-05-25T11:38:39.026Z,26.40
2018-05-25T11:41:07.258Z,26.50
2018-05-25T11:43:55.357Z,26.30
2018-05-25T11:46:53.637Z,26.20
2018-05-25T11:58:38.047Z,27.10
2018-05-25T12:01:07.033Z,27.10
2018-05-25T12:03:54.665Z,27.10
2018-05-25T12:09:23.126Z,27.20
2018-05-25T12:11:57.794Z,27.40
2018-05-25T12:14:53.294Z,27.30
2018-05-25T12:23:55.818Z,27.60
2018-05-25T12:26:54.233Z,27.60
2018-05-25T12:29:23.227Z,27.30
2018-05-25T12:34:56.788Z,27.30
2018-05-25T12:37:25.046Z,27.30
2018-05-25T12:39:56.270Z,27.20
2018-05-25T12:42:54.624Z,27.60
2018-05-25T12:48:58.410Z,27.60
2018-05-25T13:02:55.745Z,28.00
2018-05-25T13:05:24.013Z,27.70
2018-05-25T13:07:55.651Z,28.00
2018-05-25T13:10:54.163Z,28.10
2018-05-25T13:13:22.342Z,28.20
2018-05-25T13:18:54.463Z,28.20
2018-05-25T13:21:53.340Z,28.10
2018-05-25T13:36:53.889Z,28.30
2018-05-25T13:42:53.995Z,28.50
2018-05-25T13:45:43.671Z,28.50
2018-05-25T14:03:42.714Z,29.60
2018-05-25T14:27:27.163Z,30.70
2018-05-25T14:29:55.351Z,31.50
2018-05-25T14:32:54.492Z,31.00
2018-05-25T14:38:53.322Z,31.00
2018-05-25T14:41:21.517Z,30.90
2018-05-25T14:44:03.773Z,30.70
2018-05-25T14:46:33.986Z,30.70
2018-05-25T15:04:57.103Z,31.20
2018-05-25T15:10:53.902Z,32.20
2018-05-25T15:16:48.542Z,32.40
2018-05-25T15:46:48.840Z,32.10
2018-05-25T16:13:39.138Z,30.50
2018-05-25T16:20:55.983Z,31.40
2018-05-25T16:29:55.250Z,31.80
2018-05-25T16:35:53.815Z,31.20
2018-05-25T16:41:23.242Z,31.90
2018-05-25T16:43:56.214Z,31.80
2018-05-25T16:46:54.899Z,31.70
2018-05-25T16:49:23.122Z,31.90
2018-05-25T17:00:56.440Z,30.70
2018-05-25T17:03:53.451Z,30.40
2018-05-25T17:21:54.770Z,29.40
2018-05-25T17:24:54.152Z,29.30
2018-05-25T17:27:22.422Z,29.30
2018-05-25T17:29:56.796Z,29.30
2018-05-25T17:32:53.564Z,29.30
2018-05-25T17:38:22.373Z,28.70
2018-05-25T17:42:00.843Z,28.40
2018-05-25T17:44:55.979Z,27.90
2018-05-25T17:47:53.942Z,27.90
2018-05-25T17:59:53.603Z,27.00
2018-05-25T18:14:53.603Z,26.40
2018-05-25T18:23:22.694Z,26.50
2018-05-25T18:28:55.246Z,26.70
2018-05-25T18:31:53.973Z,26.20
2018-05-25T18:37:23.299Z,26.50
2018-05-25T18:39:51.570Z,26.40
2018-05-25T18:45:20.981Z,26.30
2018-05-25T18:47:49.157Z,26.30
2018-05-25T18:50:17.438Z,26.00
2018-05-25T18:52:56.376Z,26.20
2018-05-25T18:55:24.602Z,26.00
2018-05-25T18:57:52.830Z,26.00
2018-05-25T19:00:21.919Z,26.00
2018-05-25T19:02:56.325Z,26.00
2018-05-25T19:05:24.560Z,26.00
2018-05-25T19:07:52.754Z,25.90
2018-05-25T19:10:21.186Z,25.90
2018-05-25T19:12:50.281Z,25.50
2018-05-25T19:15:19.244Z,25.30
2018-05-25T19:17:47.417Z,25.30
2018-05-25T19:23:16.021Z,25.00
2018-05-25T19:25:57.032Z,25.00
2018-05-25T19:28:55.040Z,24.80
2018-05-25T19:31:23.619Z,24.80
2018-05-25T19:33:57.938Z,24.90
2018-05-25T19:36:26.158Z,24.70
2018-05-25T19:38:55.349Z,24.80
2018-05-25T19:41:53.757Z,24.70
2018-05-25T19:44:22.782Z,24.70
2018-05-25T19:46:51.099Z,24.70
2018-05-25T19:49:19.370Z,24.70
2018-05-25T19:51:47.558Z,24.70
2018-05-25T19:54:16.547Z,24.60
2018-05-25T19:56:55.146Z,24.50
2018-05-25T19:59:23.425Z,24.50
2018-05-25T20:01:55.152Z,24.40
2018-05-25T20:04:53.726Z,24.30
2018-05-25T20:07:21.906Z,24.30
2018-05-25T20:09:56.554Z,24.20
2018-05-25T20:12:24.855Z,24.20
2018-05-25T20:14:55.285Z,24.10
2018-05-25T20:17:23.544Z,24.10
2018-05-25T20:19:51.731Z,24.00
2018-05-25T20:22:20.002Z,24.00
2018-05-25T20:24:48.190Z,24.00
2018-05-25T20:27:17.189Z,23.90
2018-05-25T20:29:46.261Z,23.80
2018-05-25T20:35:15.999Z,23.70
2018-05-25T20:37:45.050Z,23.60
2018-05-25T20:40:13.276Z,23.50
2018-05-25T20:42:42.226Z,23.50
2018-05-25T20:45:10.486Z,23.50
2018-05-25T20:47:38.767Z,23.40
2018-05-25T20:50:06.959Z,23.40
2018-05-25T20:52:35.257Z,23.30
2018-05-25T20:55:03.682Z,23.20
2018-05-25T20:57:31.858Z,23.20
2018-05-25T21:00:00.299Z,23.10
2018-05-25T21:02:29.287Z,23.00
2018-05-25T21:04:58.241Z,23.00
2018-05-25T21:07:26.579Z,22.90
2018-05-25T21:09:55.525Z,22.90
2018-05-25T21:12:23.771Z,22.80
2018-05-25T21:14:57.226Z,22.70
2018-05-25T21:17:26.314Z,22.70
2018-05-25T21:19:56.028Z,22.60
2018-05-25T21:22:27.171Z,22.60
2018-05-25T21:24:56.143Z,22.50
2018-05-25T21:27:24.358Z,22.50
2018-05-25T21:29:56.799Z,22.20
2018-05-25T21:32:25.898Z,21.50
2018-05-25T21:34:54.086Z,21.50
2018-05-25T21:43:54.375Z,21.90
2018-05-25T21:46:22.553Z,21.90
2018-05-25T21:48:50.765Z,21.80
2018-05-25T21:51:18.950Z,21.80
2018-05-25T21:53:47.218Z,21.10
2018-05-25T21:56:15.451Z,21.50
2018-05-25T21:58:56.575Z,21.60
2018-05-25T22:01:24.813Z,21.30
2018-05-25T22:03:53.300Z,21.40
2018-05-25T22:09:22.031Z,21.40
2018-05-25T22:11:56.322Z,21.30
2018-05-25T22:17:08.387Z,21.10
2018-05-25T22:19:37.365Z,21.00
2018-05-25T22:22:06.354Z,20.70
2018-05-25T22:24:36.066Z,20.70
2018-05-25T22:27:04.313Z,20.80
2018-05-25T22:29:32.526Z,20.90
2018-05-25T22:32:00.793Z,20.40
2018-05-25T22:34:29.013Z,20.00
2018-05-25T22:36:57.308Z,19.70
2018-05-25T22:39:25.518Z,20.20
2018-05-25T22:41:56.761Z,20.50
2018-05-25T22:44:42.741Z,20.50
2018-05-25T22:47:30.994Z,20.50
2018-05-25T22:50:17.893Z,20.50
2018-05-25T22:52:50.931Z,20.40
2018-05-25T22:55:19.170Z,20.40
2018-05-25T22:57:55.633Z,20.40
2018-05-25T23:00:23.814Z,20.40
2018-05-25T23:02:58.002Z,20.30
2018-05-25T23:05:54.631Z,20.30
2018-05-25T23:08:22.853Z,20.30
2018-05-25T23:10:51.797Z,19.40
2018-05-25T23:19:21.390Z,20.00
2018-05-25T23:21:50.375Z,20.00
2018-05-25T23:24:18.637Z,20.00
2018-05-25T23:26:46.927Z,20.00
2018-05-25T23:29:15.117Z,20.00
2018-05-25T23:31:44.072Z,19.90
2018-05-25T23:34:12.298Z,19.90
2018-05-25T23:36:40.483Z,19.90
2018-05-25T23:39:08.719Z,19.90
2018-05-25T23:41:36.989Z,19.80
2018-05-25T23:50:07.866Z,19.70
2018-05-25T23:52:36.072Z,19.70
2018-05-25T23:55:04.268Z,19.70
2018-05-25T23:57:32.487Z,19.70
